Tiempo atmosférico en la estación meteorológica de Jaca, Huesca (830 m.)



Fecha
DESCASC
Temp. máxima en grados centígrados (hora)
DESCASC
Temp. mínima en grados centígrados (hora)
DESCASC
Temp. media en grados centígrados
DESCASC
Racha de viento máxima en m/sg (hora)
DESCASC
Velocidad máxima media en intervalos de 10 minutos(hora)
DESCASC
Precipitaciones diarias en mm
DESCASC
Precipitaciones de 00:00 a 06:00 en mm
DESCASC
Precipitaciones de 06:00 a 12:00 en mm
DESCASC
Precipitaciones de 12:00 a 18:00 en mm
DESCASC
Precipitaciones de 18:00 a 24:00 en mm
DESCASC
30-11-2020 13.2 (14:20) 1.5 (08:00) 7.3 5.83 (22:50) 3.61 (23:00) 0 0 0 0 0
29-11-2020 14.2 (13:30) 3 (00:00) 8.6 6.11 (19:20) 3.89 (18:50) 0 0 0 0 0
28-11-2020 11.8 (14:20) 2.3 (00:00) 7.1 9.72 (06:50) 3.33 (23:59) 0.1 0 0.1 0 0
27-11-2020 12.3 (15:10) 5 (00:00) 8.7 5 (06:10) 3.06 (06:10) 0.5 0.4 0.1 0 0
26-11-2020 11.4 (14:30) 6.9 (00:00) 9.1 7.78 (14:40) 3.33 (14:40) 1.3 0.1 0 1.2 0
25-11-2020 11.8 (14:50) 0.5 (00:00) 6.2 8.89 (13:50) 3.61 (13:20) 0.1 0 0 0 0.1
24-11-2020 16.2 (14:10) 0 (00:00) 8.1 6.94 (22:50) 3.89 (22:50) 0 0 0 0 0
23-11-2020 12.4 (15:00) -0.6 (-00:0) 5.9 5.56 (22:00) 2.78 (21:20) 0 0 0 0 0
22-11-2020 12.4 (15:50) -0.8 (-00:0) 5.8 6.11 (22:30) 3.61 (23:20) 0 0 0 0 0
21-11-2020 15.7 (14:40) -0.8 (-00:0) 7.4 6.67 (19:10) 3.89 (19:40) 0 0 0 0 0
20-11-2020 13.5 (15:20) 0.3 (00:00) 6.9 7.78 (14:00) 3.33 (14:20) 0 0 0 0 0
19-11-2020 16.6 (13:40) 3.7 (00:00) 10.2 16.67 (17:10) 9.44 (17:40) 0 0 0 0 0
18-11-2020 17.1 (13:20) 4.4 (00:00) 10.8 6.39 (20:00) 3.06 (21:50) 0 0 0 0 0
17-11-2020 17.2 (15:40) 1.8 (00:00) 9.5 6.67 (01:20) 3.33 (20:00) 0 0 0 0 0
16-11-2020 12.9 (13:40) 3.3 (00:00) 8.1 8.33 (15:00) 3.06 (23:30) 0.2 0.1 0 0.1 0
15-11-2020 13.1 (13:10) 6.3 (00:00) 9.7 5.83 (04:50) 3.06 (01:50) 0.6 0 0 0 0.6
14-11-2020 15.8 (14:40) 2.6 (00:00) 9.2 7.5 (02:20) 3.89 (00:50) 0 0 0 0 0
13-11-2020 17.5 (15:30) 4.8 (00:00) 11.2 7.5 (23:59) 3.89 (03:30) 0 0 0 0 0
12-11-2020 17.7 (14:40) 4.3 (00:00) 11 9.17 (22:20) 3.89 (00:20) 0 0 0 0 0
11-11-2020 16.9 (13:50) 3.5 (00:00) 10.2 6.67 (20:20) 3.89 (20:20) 0 0 0 0 0
10-11-2020 14.3 (14:50) 2.1 (00:00) 8.2 6.67 (18:20) 3.33 (18:50) 0 0 0 0 0
09-11-2020 15.6 (13:50) 4.8 (00:00) 10.2 6.39 (01:10) 2.78 (14:20) 0 0 0 0 0
08-11-2020 15.5 (12:40) 5.7 (00:00) 10.6 6.67 (07:30) 3.33 (07:30) 0.1 0 0 0.1 0
07-11-2020 16 (04:50) 9.4 (00:00) 12.7 12.5 (07:40) 5 (06:40) 37 0 24 3.3 9.7
06-11-2020 16.2 (12:30) 10.9 (00:00) 13.6 10.83 (17:00) 4.17 (16:50) 0.4 0.4 0 0 0
05-11-2020 17.1 (15:00) 4.1 (00:00) 10.6 8.89 (22:40) 3.61 (08:30) 0 0 0 0 0
04-11-2020 7.9 (16:00) 4.3 (00:00) 6.1 4.72 (00:10) 2.22 (01:30) 2.3 0 2.3 0 0
03-11-2020 11 (00:20) 6.2 (00:00) 8.6 9.17 (17:50) 3.06 (17:10) 5.5 0 5.4 0.1 0
02-11-2020 22.2 (13:30) 9.2 (00:00) 15.7 6.39 (00:30) 2.78 (00:10) 0 0 0 0 0

Gráficas

Temp. máximas Temp. mínimas Temp. medias Precipitaciones Rachas de viento máximas Velocidades máximas media en intervalos de 10 minutos

Datos horarios

Fecha y hora oficial Temperatura (ºC) Velocidad del viento (km/h) Dirección del viento Racha (km/h) Dirección de racha Precipitación (mm) Presión (hPa) Tendencia (hPa) Humedad (%)
2020-12-01 23:00:00 4.1 3 Noroeste 21 Noroeste 0 -- -- 77
2020-12-01 22:00:00 4.4 5 Oeste 21 Noroeste 0 -- -- 72
2020-12-01 21:00:00 4.8 9 Oeste 24 Noroeste 0 -- -- 65
2020-12-01 20:00:00 5 10 Oeste 25 Oeste 0 -- -- 55
2020-12-01 19:00:00 5.5 8 Noroeste 27 Noroeste 0 -- -- 48
2020-12-01 18:00:00 6.4 13 Noroeste 48 Noroeste 0 -- -- 46
2020-12-01 17:00:00 9.4 14 Norte 49 Nordeste 0 -- -- 42
2020-12-01 16:00:00 9.8 7 Norte 39 Nordeste 0 -- -- 46
2020-12-01 15:00:00 7.9 10 Sudoeste 28 Oeste 0 -- -- 57
2020-12-01 14:00:00 7 7 Oeste 26 Sudoeste 0 -- -- 54
2020-12-01 13:00:00 7 7 Oeste 21 Sudoeste 0 -- -- 52
2020-12-01 12:00:00 6.3 2 Sudoeste 9 Oeste 0 -- -- 60
2020-12-01 11:00:00 4.8 2 Oeste 8 Sur 0 -- -- 83
2020-12-01 10:00:00 2.2 3 Sur 10 Sur 0 -- -- 88
2020-12-01 09:00:00 0.6 4 Sur 10 Sur 0 -- -- 89
2020-12-01 08:00:00 0.2 4 Sur 7 Sudeste 0 -- -- 89
2020-12-01 07:00:00 0.1 2 Sudeste 7 Sudoeste 0 -- -- 89
2020-12-01 06:00:00 0.1 3 Sur 8 Sudoeste 0 -- -- 89
2020-12-01 05:00:00 0.2 0 Calma 6 Nordeste 0 -- -- 89
2020-12-01 04:00:00 1.1 3 Nordeste 9 Nordeste 0 -- -- 89
2020-12-01 03:00:00 1 0 Calma 12 Nordeste 0 -- -- 89
2020-12-01 02:00:00 1.2 6 Nordeste 12 Nordeste 0 -- -- 88
2020-12-01 01:00:00 1.9 3 Nordeste 12 Nordeste 0 -- -- 88
2020-12-01 00:00:00 2.5 4 Nordeste 20 Nordeste 0 -- -- 88
2020-11-30 23:00:00 3.2 13 Nordeste 21 Nordeste 0 -- -- 87
2020-11-30 22:00:00 3.4 8 Nordeste 18 Nordeste 0 -- -- 85
2020-11-30 21:00:00 4 0 Calma 15 Este 0 -- -- 84
2020-11-30 20:00:00 4.6 2 Sudeste 18 Nordeste 0 -- -- 82
2020-11-30 19:00:00 5.7 5 Nordeste 15 Nordeste 0 -- -- 77
2020-11-30 18:00:00 7.8 3 Nordeste 6 Nordeste 0 -- -- 63
2020-11-30 17:00:00 11.2 4 Noroeste 13 Noroeste 0 -- -- 51
2020-11-30 16:00:00 12.2 6 Noroeste 15 Noroeste 0 -- -- 48
2020-11-30 15:00:00 12.4 8 Noroeste 14 Noroeste 0 -- -- 46
2020-11-30 14:00:00 12.5 4 Oeste 10 Oeste 0 -- -- 49
2020-11-30 13:00:00 11.3 0 Calma 11 Sudoeste 0 -- -- 52
2020-11-30 12:00:00 9.4 4 Sudeste 12 Sur 0 -- -- 57
2020-11-30 11:00:00 6.6 4 Sudeste 11 Sudeste 0 -- -- 79
2020-11-30 10:00:00 3.5 0 Calma 8 Nordeste 0 -- -- 89
2020-11-30 09:00:00 2.2 4 Nordeste 13 Nordeste 0 -- -- 89
2020-11-30 08:00:00 1.7 4 Nordeste 16 Nordeste 0 -- -- 89
2020-11-30 07:00:00 1.8 5 Nordeste 16 Este 0 -- -- 89
2020-11-30 06:00:00 2 4 Norte 15 Nordeste 0 -- -- 88
2020-11-30 05:00:00 2.6 5 Nordeste 15 Nordeste 0 -- -- 87
2020-11-30 04:00:00 3.4 7 Nordeste 19 Nordeste 0 -- -- 88
2020-11-30 03:00:00 3.6 4 Nordeste 15 Nordeste 0 -- -- 87
2020-11-30 02:00:00 3.6 3 Nordeste 16 Nordeste 0 -- -- 87
2020-11-30 01:00:00 3.4 8 Nordeste 17 Nordeste 0 -- -- 85
2020-11-30 00:00:00 3.9 8 Nordeste 18 Nordeste 0 -- -- 85
2020-11-29 23:00:00 3.8 5 Nordeste 17 Nordeste 0 -- -- 85
2020-11-29 22:00:00 4.5 7 Nordeste 17 Nordeste 0 -- -- 83
2020-11-29 21:00:00 5.1 10 Nordeste 22 Nordeste 0 -- -- 81
2020-11-29 20:00:00 6 8 Nordeste 22 Nordeste 0 -- -- 78
2020-11-29 19:00:00 6.7 13 Nordeste 21 Nordeste 0 -- -- 76
2020-11-29 18:00:00 8.5 5 Nordeste 12 Nordeste 0 -- -- 67
2020-11-29 17:00:00 11.4 0 Calma 5 Norte 0 -- -- 54
2020-11-29 16:00:00 12.6 3 Nordeste 8 Noroeste 0 -- -- 52
2020-11-29 15:00:00 12.5 2 Noroeste 6 Noroeste 0 -- -- 51
2020-11-29 14:00:00 13.1 4 Sudoeste 7 Sudoeste 0 -- -- 49
2020-11-29 13:00:00 12.5 0 Calma 8 Sudeste 0 -- -- 54
2020-11-29 12:00:00 10.5 0 Calma 9 Sudeste 0 -- -- 59
2020-11-29 11:00:00 9.2 4 Sudeste 10 Sudeste 0 -- -- 68
2020-11-29 10:00:00 5.7 3 Nordeste 10 Nordeste 0 -- -- 83
2020-11-29 09:00:00 4.3 0 Calma 11 Nordeste 0 -- -- 83
2020-11-29 08:00:00 5.1 3 Este 14 Sudeste 0 -- -- 82
2020-11-29 07:00:00 4.7 4 Nordeste 15 Nordeste 0 -- -- 87
2020-11-29 06:00:00 4.7 5 Nordeste 12 Nordeste 0 -- -- 87
2020-11-29 05:00:00 4.4 3 Este 12 Nordeste 0 -- -- 87
2020-11-29 04:00:00 3.6 5 Nordeste 15 Nordeste 0 -- -- 87
2020-11-29 03:00:00 3.1 8 Nordeste 16 Nordeste 0 -- -- 87
2020-11-29 02:00:00 3.6 2 Sudeste 16 Nordeste 0 -- -- 85
2020-11-29 01:00:00 3.8 7 Nordeste 17 Nordeste 0 -- -- 85
2020-11-29 00:00:00 4.5 12 Nordeste 20 Nordeste 0 -- -- 83
2020-11-28 23:00:00 5.4 6 Nordeste 17 Norte 0 -- -- 82
2020-11-28 22:00:00 6.8 5 Nordeste 15 Nordeste 0 -- -- 79
2020-11-28 21:00:00 7.6 5 Nordeste 10 Nordeste 0 -- -- 76
2020-11-28 20:00:00 8.2 4 Nordeste 13 Nordeste 0 -- -- 72
2020-11-28 19:00:00 9 4 Sudeste 11 Sudeste 0 -- -- 68
2020-11-28 18:00:00 9.6 5 Sudeste 14 Sudeste 0 -- -- 62
2020-11-28 17:00:00 10.4 0 Calma 11 Sudoeste 0 -- -- 59
2020-11-28 16:00:00 10.8 2 Sudoeste 8 Noroeste 0 -- -- 55
2020-11-28 15:00:00 11.6 4 Noroeste 14 Noroeste 0 -- -- 52
2020-11-28 14:00:00 11.1 7 Noroeste 16 Noroeste 0 -- -- 54
2020-11-28 13:00:00 10.6 8 Noroeste 16 Noroeste 0 -- -- 57
2020-11-28 12:00:00 9.9 2 Oeste 7 Sudoeste 0 -- -- 64
2020-11-28 11:00:00 6.8 0 Calma 9 Sudeste 0 -- -- 80
2020-11-28 10:00:00 3.7 2 Sudeste 9 Nordeste 0.1 -- -- 88
2020-11-28 09:00:00 2.7 2 Sudeste 17 Nordeste 0 -- -- 89
2020-11-28 08:00:00 2.5 11 Nordeste 19 Nordeste 0 -- -- 88
2020-11-28 07:00:00 3.2 0 Calma 35 Nordeste 0 -- -- 88
2020-11-28 06:00:00 3.2 9 Nordeste 30 Nordeste 0 -- -- 87
2020-11-28 05:00:00 4.3 3 Sudeste 17 Nordeste 0 -- -- 85
2020-11-28 04:00:00 4.2 8 Nordeste 18 Nordeste 0 -- -- 85
2020-11-28 03:00:00 4.2 9 Norte 18 Este 0 -- -- 85
2020-11-28 02:00:00 4.3 9 Nordeste 22 Nordeste 0 -- -- 85
2020-11-28 01:00:00 4.5 5 Nordeste 12 Nordeste 0 -- -- 83
2020-11-28 00:00:00 5.1 2 Este 13 Nordeste 0 -- -- 82
2020-11-27 23:00:00 5.4 3 Nordeste 15 Nordeste 0 -- -- 82
2020-11-27 22:00:00 5.6 6 Nordeste 15 Nordeste 0 -- -- 79
2020-11-27 21:00:00 6.3 6 Nordeste 13 Nordeste 0 -- -- 79
2020-11-27 20:00:00 6.8 3 Este 15 Norte 0 -- -- 77
2020-11-27 19:00:00 7.8 3 Nordeste 10 Nordeste 0 -- -- 73
2020-11-27 18:00:00 9.3 3 Nordeste 10 Nordeste 0 -- -- 68
2020-11-27 17:00:00 11.4 0 Calma 7 Oeste 0 -- -- 57
2020-11-27 16:00:00 12 3 Oeste 10 Este 0 -- -- 57
2020-11-27 15:00:00 12.1 2 Sudeste 8 Sudeste 0 -- -- 54
2020-11-27 14:00:00 11.7 4 Sudeste 16 Sudeste 0 -- -- 56
2020-11-27 13:00:00 10.6 3 Nordeste 12 Nordeste 0 -- -- 72
2020-11-27 12:00:00 9.1 5 Nordeste 10 Nordeste 0.1 -- -- 77
2020-11-27 11:00:00 8.2 6 Nordeste 15 Nordeste 0 -- -- 76
2020-11-27 10:00:00 7.3 6 Nordeste 16 Este 0 -- -- 81
2020-11-27 09:00:00 6.7 6 Nordeste 16 Nordeste 0 -- -- 83
2020-11-27 08:00:00 6.5 7 Nordeste 16 Nordeste 0 -- -- 83
2020-11-27 07:00:00 6.4 8 Nordeste 18 Nordeste 0 -- -- 83
2020-11-27 06:00:00 6.7 7 Nordeste 14 Nordeste 0 -- -- 83
2020-11-27 05:00:00 7.5 2 Este 9 Nordeste 0 -- -- 77
2020-11-27 04:00:00 8.1 0 Calma 9 Este 0 -- -- 72
2020-11-27 03:00:00 8.5 4 Sudeste 9 Este 0.3 -- -- 70
2020-11-27 02:00:00 9 4 Este 10 Este 0.1 -- -- 64
2020-11-27 01:00:00 9.1 5 Sudeste 16 Este 0 -- -- 63
2020-11-27 00:00:00 8.8 8 Sudeste 14 Sudeste 0 -- -- 66
2020-11-26 23:00:00 8.7 3 Este 17 Sur 0 -- -- 67
2020-11-26 22:00:00 9.7 9 Sudeste 23 Sudeste 0 -- -- 62
2020-11-26 21:00:00 9.6 9 Sudeste 21 Sudeste 0 -- -- 64
2020-11-26 20:00:00 8.8 8 Sur 24 Sur 0 -- -- 68
2020-11-26 19:00:00 8.7 8 Sudeste 20 Sudeste 0 -- -- 72
2020-11-26 18:00:00 8.6 6 Sudeste 17 Sudeste 0 -- -- 78
2020-11-26 17:00:00 8.8 4 Sur 13 Sur 0.7 -- -- 77
2020-11-26 16:00:00 9.7 6 Sur 23 Sudeste 0.5 -- -- 63
2020-11-26 15:00:00 11.3 8 Sudeste 28 Este 0 -- -- 52
2020-11-26 14:00:00 10.9 8 Sudeste 21 Sudeste 0 -- -- 54
2020-11-26 13:00:00 10.9 8 Sudeste 26 Sudeste 0 -- -- 53
2020-11-26 12:00:00 11.2 8 Sudeste 22 Sur 0 -- -- 54
2020-11-26 11:00:00 9.5 4 Sur 14 Sudeste 0 -- -- 59
2020-11-26 10:00:00 8.7 4 Sudeste 13 Sudeste 0 -- -- 63
2020-11-26 09:00:00 8.3 6 Sudeste 12 Sudeste 0 -- -- 61
2020-11-26 08:00:00 8 4 Este 16 Sur 0 -- -- 59
2020-11-26 07:00:00 8.1 4 Sudeste 13 Sudeste 0 -- -- 61
2020-11-26 06:00:00 7.8 3 Sudeste 13 Sudeste 0 -- -- 63
2020-11-26 05:00:00 7.8 4 Este 17 Sudeste 0 -- -- 63
2020-11-26 04:00:00 8.1 9 Sudeste 23 Sudeste 0 -- -- 63
2020-11-26 03:00:00 8.3 8 Sudeste 21 Sudeste 0.1 -- -- 61
2020-11-26 02:00:00 7.7 8 Sudeste 19 Sudeste 0 -- -- 62
2020-11-26 01:00:00 7.2 6 Sudeste 17 Sur 0 -- -- 64
2020-11-26 00:00:00 7.4 7 Este 21 Sudeste 0 -- -- 63
2020-11-25 23:00:00 7.8 9 Sudeste 19 Sudeste 0 -- -- 63
2020-11-25 22:00:00 8.2 9 Sudeste 19 Sudeste 0 -- -- 64
2020-11-25 21:00:00 8.4 9 Sudeste 24 Sudeste 0 -- -- 65
2020-11-25 20:00:00 8.2 5 Sudeste 19 Sur 0.1 -- -- 70
2020-11-25 19:00:00 9.1 5 Sudeste 14 Sudeste 0 -- -- 55
2020-11-25 18:00:00 9.5 5 Sudeste 19 Sudeste 0 -- -- 51
2020-11-25 17:00:00 10 6 Sur 26 Sur 0 -- -- 46
2020-11-25 16:00:00 10.5 8 Sur 30 Sur 0 -- -- 44
2020-11-25 15:00:00 11.1 9 Sur 29 Sur 0 -- -- 43
2020-11-25 14:00:00 11.4 11 Sur 32 Sur 0 -- -- 44
2020-11-25 13:00:00 10.7 12 Sur -- -- -- -- -- 47
2020-11-25 12:00:00 9.9 10 Sur 31 Sudeste 0 -- -- 51
2020-11-25 11:00:00 9 8 Sudeste 21 Sudeste 0 -- -- 55
2020-11-25 10:00:00 6.2 6 Este 21 Sudeste 0 -- -- 61
2020-11-25 09:00:00 3.4 6 Este 26 Este 0 -- -- 70
2020-11-25 08:00:00 1 8 Nordeste 24 Nordeste 0 -- -- 69
2020-11-25 07:00:00 1.2 10 Nordeste 19 Nordeste 0 -- -- 68
2020-11-25 06:00:00 1.1 4 Nordeste 14 Norte 0 -- -- 69
2020-11-25 05:00:00 0.7 3 Norte 14 Nordeste 0 -- -- 70
2020-11-25 04:00:00 1.1 7 Nordeste 19 Nordeste 0 -- -- 68
2020-11-25 03:00:00 1.3 7 Nordeste 23 Nordeste 0 -- -- 68
2020-11-25 02:00:00 1.6 9 Nordeste 20 Nordeste 0 -- -- 66
2020-11-25 01:00:00 2.4 9 Nordeste 23 Nordeste 0 -- -- 65
2020-11-25 00:00:00 2.4 8 Nordeste 24 Nordeste 0 -- -- 65
2020-11-24 23:00:00 3.5 13 Nordeste 25 Nordeste 0 -- -- 64
2020-11-24 22:00:00 3.8 12 Nordeste 21 Este 0 -- -- 64
2020-11-24 21:00:00 4.3 8 Nordeste 18 Nordeste 0 -- -- 63
2020-11-24 20:00:00 5 3 Nordeste 16 Nordeste 0 -- -- 60
2020-11-24 19:00:00 5.8 9 Nordeste 15 Nordeste 0 -- -- 57
2020-11-24 18:00:00 8.4 0 Calma 9 Oeste 0 -- -- 46
2020-11-24 17:00:00 10.8 5 Sudoeste 14 Noroeste 0 -- -- 37
2020-11-24 16:00:00 12.7 8 Noroeste 15 Noroeste 0 -- -- 33
2020-11-24 15:00:00 15.6 4 Oeste 10 Sudoeste 0 -- -- 29
2020-11-24 14:00:00 15.7 4 Sudeste 13 Sudeste 0 -- -- 25
2020-11-24 13:00:00 13.2 4 Sudeste 12 Este 0 -- -- 28
2020-11-24 12:00:00 9.3 0 Calma 8 Sudoeste 0 -- -- 47
2020-11-24 11:00:00 6.6 4 Sudeste 10 Sur 0 -- -- 59
2020-11-24 10:00:00 2 5 Sur 15 Sur 0 -- -- 75
2020-11-24 09:00:00 0.7 7 Sudeste 14 Sudeste 0 -- -- 78
2020-11-24 08:00:00 0.1 0 Calma 10 Sudeste 0 -- -- 81
2020-11-24 07:00:00 0.5 5 Sudeste 10 Sur 0 -- -- 79
2020-11-24 06:00:00 0.4 0 Calma 12 Nordeste 0 -- -- 81
2020-11-24 05:00:00 0.7 5 Sudeste 17 Nordeste 0 -- -- 82
2020-11-24 04:00:00 1.2 4 Sudeste 13 Nordeste 0 -- -- 81
2020-11-24 03:00:00 1 5 Nordeste 13 Nordeste 0 -- -- 83
2020-11-24 02:00:00 1.5 4 Nordeste 14 Nordeste 0 -- -- 81
2020-11-24 01:00:00 1.8 0 Calma 12 Nordeste 0 -- -- 81
2020-11-24 00:00:00 1.9 7 Nordeste 17 Nordeste 0 -- -- 81
2020-11-23 23:00:00 2.3 8 Nordeste 20 Nordeste 0 -- -- 77
2020-11-23 22:00:00 2.8 8 Nordeste 20 Nordeste 0 -- -- 76
2020-11-23 21:00:00 3.8 9 Nordeste 18 Nordeste 0 -- -- 73
2020-11-23 20:00:00 4 6 Nordeste 13 Nordeste 0 -- -- 70
2020-11-23 19:00:00 5.2 4 Nordeste 13 Nordeste 0 -- -- 66
2020-11-23 18:00:00 7.1 4 Nordeste 11 Oeste 0 -- -- 52
2020-11-23 17:00:00 9.7 6 Oeste 11 Noroeste 0 -- -- 42
2020-11-23 16:00:00 11.2 6 Noroeste 14 Noroeste 0 -- -- 40
2020-11-23 15:00:00 12.1 4 Oeste 14 Oeste 0 -- -- 40
2020-11-23 14:00:00 11.4 5 Oeste 16 Noroeste 0 -- -- 40
2020-11-23 13:00:00 9.6 4 Noroeste 9 Noroeste 0 -- -- 46
2020-11-23 12:00:00 8.4 0 Calma 7 Sudoeste 0 -- -- 46
2020-11-23 11:00:00 7.1 2 Sudeste 8 Sudeste 0 -- -- 53
2020-11-23 10:00:00 3.2 4 Sudeste 8 Sur 0 -- -- 69
2020-11-23 09:00:00 0 3 Nordeste 10 Nordeste 0 -- -- 77
2020-11-23 08:00:00 -0.4 2 Este 10 Nordeste 0 -- -- 78
2020-11-23 07:00:00 -0.1 3 Este 15 Nordeste 0 -- -- 78
2020-11-23 06:00:00 -0.2 3 Nordeste 9 Nordeste 0 -- -- 79
2020-11-23 05:00:00 -0.6 2 Nordeste 15 Nordeste 0 -- -- 79
2020-11-23 04:00:00 -0.2 2 Nordeste 11 Nordeste 0 -- -- 78
2020-11-23 03:00:00 0.2 6 Nordeste 12 Nordeste 0 -- -- 77
2020-11-23 02:00:00 0.2 3 Nordeste 12 Este 0 -- -- 76
2020-11-23 01:00:00 0.7 8 Nordeste 19 Nordeste 0 -- -- 75
2020-11-23 00:00:00 0.8 8 Nordeste 21 Nordeste 0 -- -- 73
2020-11-22 23:00:00 1.7 3 Nordeste 22 Nordeste 0 -- -- 70
2020-11-22 22:00:00 2.3 8 Nordeste 17 Nordeste 0 -- -- 68
2020-11-22 21:00:00 3 5 Nordeste 14 Nordeste 0 -- -- 65
2020-11-22 20:00:00 3.5 5 Nordeste 20 Nordeste 0 -- -- 64
2020-11-22 19:00:00 4.4 4 Nordeste 12 Nordeste 0 -- -- 61
2020-11-22 18:00:00 7.3 0 Calma 13 Noroeste 0 -- -- 44
2020-11-22 17:00:00 10 5 Oeste 13 Oeste 0 -- -- 36
2020-11-22 16:00:00 12.2 5 Oeste 15 Noroeste 0 -- -- 34
2020-11-22 15:00:00 11.7 8 Noroeste 15 Noroeste 0 -- -- 33
2020-11-22 14:00:00 11.2 6 Noroeste 15 Noroeste 0 -- -- 31
2020-11-22 13:00:00 11 3 Oeste 10 Sudoeste 0 -- -- 33
2020-11-22 12:00:00 10.5 2 Oeste 8 Sudeste 0 -- -- 37
2020-11-22 11:00:00 7.2 0 Calma 7 Sudeste 0 -- -- 44
2020-11-22 10:00:00 4 2 Sudeste 12 Nordeste 0 -- -- 55
2020-11-22 09:00:00 0 4 Nordeste 10 Nordeste 0 -- -- 60
2020-11-22 08:00:00 -0.8 0 Calma 10 Nordeste 0 -- -- 62
2020-11-22 07:00:00 -0.3 3 Nordeste 10 Nordeste 0 -- -- 62
2020-11-22 06:00:00 0 0 Calma 12 Nordeste 0 -- -- 60
2020-11-22 05:00:00 -0.1 2 Nordeste 18 Nordeste 0 -- -- 60
2020-11-22 04:00:00 0.3 0 Calma 21 Nordeste 0 -- -- 60
2020-11-22 03:00:00 0.3 6 Nordeste 14 Nordeste 0 -- -- 61
2020-11-22 02:00:00 1 0 Calma 10 Nordeste 0 -- -- 62
2020-11-22 01:00:00 0.8 7 Nordeste 14 Nordeste 0 -- -- 62
2020-11-22 00:00:00 1.3 6 Nordeste 18 Nordeste 0 -- -- 62
2020-11-21 23:00:00 1.3 5 Nordeste 14 Nordeste 0 -- -- 60
2020-11-21 22:00:00 2.3 8 Nordeste 19 Nordeste 0 -- -- 59
2020-11-21 21:00:00 2.5 5 Nordeste 21 Nordeste 0 -- -- 58
2020-11-21 20:00:00 3.2 10 Nordeste 24 Norte 0 -- -- 57
2020-11-21 19:00:00 5.1 11 Nordeste 21 Nordeste 0 -- -- 51
2020-11-21 18:00:00 6.9 6 Nordeste 15 Nordeste 0 -- -- 44
2020-11-21 17:00:00 12 3 Oeste 9 Oeste 0 -- -- 31
2020-11-21 16:00:00 14.9 4 Oeste 9 Oeste 0 -- -- 28
2020-11-21 15:00:00 14 5 Noroeste 8 Noroeste 0 -- -- 25
2020-11-21 14:00:00 14.2 2 Sudoeste 7 Sudoeste 0 -- -- 28
2020-11-21 13:00:00 11.2 2 Oeste 8 Noroeste 0 -- -- 31
2020-11-21 12:00:00 9.5 3 Oeste 8 Noroeste 0 -- -- 38
2020-11-21 11:00:00 5.3 4 Norte 13 Nordeste 0 -- -- 44
2020-11-21 10:00:00 2.7 0 Calma 9 Sudoeste 0 -- -- 51
2020-11-21 09:00:00 -0.3 3 Nordeste 8 Sudeste 0 -- -- 57
2020-11-21 08:00:00 -0.4 0 Calma 19 Nordeste 0 -- -- 57
2020-11-21 07:00:00 -0.5 3 Este 14 Nordeste 0 -- -- 58
2020-11-21 06:00:00 -0.4 3 Este 22 Nordeste 0 -- -- 57
2020-11-21 05:00:00 -0.1 8 Nordeste 21 Nordeste 0 -- -- 57
2020-11-21 04:00:00 -0.5 0 Calma 13 Nordeste 0 -- -- 59
2020-11-21 03:00:00 -0.6 0 Calma 8 Sur 0 -- -- 60
2020-11-21 02:00:00 0.3 0 Calma 17 Sudeste 0 -- -- 57
2020-11-21 01:00:00 0.9 3 Sudeste 12 Sudeste 0 -- -- 57
2020-11-21 00:00:00 0.7 0 Calma 12 Nordeste 0 -- -- 54
2020-11-20 23:00:00 1 3 Nordeste 10 Sudeste 0 -- -- 53
2020-11-20 22:00:00 2.5 3 Sudeste 8 Sudeste 0 -- -- 49
2020-11-20 21:00:00 2.9 2 Nordeste 17 Noroeste 0 -- -- 46
2020-11-20 20:00:00 4.3 7 Noroeste 15 Oeste 0 -- -- 43
2020-11-20 19:00:00 5 7 Noroeste 18 Oeste 0 -- -- 40
2020-11-20 18:00:00 6.5 8 Noroeste 17 Noroeste 0 -- -- 34
2020-11-20 17:00:00 8.5 4 Noroeste 19 Noroeste 0 -- -- 28
2020-11-20 16:00:00 12.4 6 Oeste 18 Noroeste 0 -- -- 22
2020-11-20 15:00:00 13.1 9 Sudoeste 28 Sudoeste 0 -- -- 22
2020-11-20 14:00:00 13 10 Sudoeste 28 Oeste 0 -- -- 22
2020-11-20 13:00:00 11.9 3 Oeste 16 Noroeste 0 -- -- 27
2020-11-20 12:00:00 8.9 4 Noroeste 13 Oeste 0 -- -- 37
2020-11-20 11:00:00 7.1 2 Oeste 13 Sudeste 0 -- -- 43
2020-11-20 10:00:00 4.3 5 Sur 15 Sur 0 -- -- 61
2020-11-20 09:00:00 0.6 5 Sur 17 Sur 0 -- -- 70
2020-11-20 08:00:00 0.3 7 Sur 15 Sur 0 -- -- 68
2020-11-20 07:00:00 1.6 4 Sur 15 Sudeste 0 -- -- 65
2020-11-20 06:00:00 2 3 Oeste 14 Oeste 0 -- -- 64
2020-11-20 05:00:00 2.3 5 Noroeste 14 Noroeste 0 -- -- 64
2020-11-20 04:00:00 2.7 5 Oeste 17 Oeste 0 -- -- 65
2020-11-20 03:00:00 2.9 7 Noroeste 17 Noroeste 0 -- -- 66
2020-11-20 02:00:00 3.2 4 Oeste 22 Noroeste 0 -- -- 66
2020-11-20 01:00:00 3.4 10 Noroeste 22 Noroeste 0 -- -- 66
2020-11-20 00:00:00 4 6 Oeste 18 Noroeste 0 -- -- 62
2020-11-19 23:00:00 4.3 9 Noroeste 28 Noroeste 0 -- -- 60
2020-11-19 22:00:00 5 10 Noroeste 24 Noroeste 0 -- -- 61
2020-11-19 21:00:00 6 9 Oeste 20 Oeste 0 -- -- 66
2020-11-19 20:00:00 6.6 16 Oeste 36 Oeste 0 -- -- 65
2020-11-19 19:00:00 7.6 6 Noroeste 39 Sudoeste 0 -- -- 61
2020-11-19 18:00:00 10.3 8 Oeste 60 Norte 0 -- -- 46
2020-11-19 17:00:00 13.3 15 Norte 49 Nordeste 0 -- -- 37
2020-11-19 16:00:00 14.7 15 Norte 49 Nordeste 0 -- -- 36
2020-11-19 15:00:00 15.9 17 Norte 48 Nordeste 0 -- -- 38
2020-11-19 14:00:00 15.8 23 Norte 50 Nordeste 0 -- -- 40
2020-11-19 13:00:00 15.1 8 Sudoeste 18 Sudoeste 0 -- -- 57
2020-11-19 12:00:00 12.7 6 Oeste 17 Oeste 0 -- -- 59
2020-11-19 11:00:00 12.3 4 Sur 11 Sur 0 -- -- 59
2020-11-19 10:00:00 9.1 3 Sur 10 Sur 0 -- -- 75
2020-11-19 09:00:00 5.4 5 Sur 13 Sur 0 -- -- 87
2020-11-19 08:00:00 4.2 6 Sudeste 12 Sudeste 0 -- -- 88
2020-11-19 07:00:00 4.2 0 Calma 8 Nordeste 0 -- -- 87
2020-11-19 06:00:00 4.3 2 Sudeste 16 Nordeste 0 -- -- 87
2020-11-19 05:00:00 5.2 0 Calma 15 Norte 0 -- -- 87
2020-11-19 04:00:00 5.5 2 Nordeste 10 Este 0 -- -- 87
2020-11-19 03:00:00 5.6 4 Nordeste 15 Nordeste 0 -- -- 87
2020-11-19 02:00:00 6 5 Nordeste 15 Nordeste 0 -- -- 85
2020-11-19 01:00:00 6.4 3 Nordeste 12 Nordeste 0 -- -- 85
2020-11-19 00:00:00 6.1 4 Nordeste 14 Nordeste 0 -- -- 85
2020-11-18 23:00:00 6.7 8 Nordeste 17 Nordeste 0 -- -- 83
2020-11-18 22:00:00 7.5 10 Nordeste 21 Nordeste 0 -- -- 81
2020-11-18 21:00:00 8.1 6 Nordeste 19 Nordeste 0 -- -- 79
2020-11-18 20:00:00 8.5 9 Nordeste 23 Nordeste 0 -- -- 77
2020-11-18 19:00:00 9.8 6 Nordeste 13 Norte 0 -- -- 70
2020-11-18 18:00:00 12.6 0 Calma 8 Oeste 0 -- -- 50
2020-11-18 17:00:00 14.8 3 Sudoeste 16 Oeste 0 -- -- 42
2020-11-18 16:00:00 16.1 8 Noroeste 19 Noroeste 0 -- -- 40
2020-11-18 15:00:00 16.5 7 Noroeste 17 Noroeste 0 -- -- 38
2020-11-18 14:00:00 16.6 7 Noroeste 18 Noroeste 0 -- -- 35
2020-11-18 13:00:00 16.4 5 Oeste 15 Oeste 0 -- -- 38
2020-11-18 12:00:00 15.6 3 Sur 10 Sudeste 0 -- -- 40
2020-11-18 11:00:00 12.7 5 Sudeste 11 Sudeste 0 -- -- 49
2020-11-18 10:00:00 8.7 3 Sudeste 17 Nordeste 0 -- -- 69
2020-11-18 09:00:00 5.8 2 Sudeste 17 Nordeste 0 -- -- 76
2020-11-18 08:00:00 5.1 3 Nordeste 13 Este 0 -- -- 79
2020-11-18 07:00:00 4.6 3 Nordeste 14 Nordeste 0 -- -- 79
2020-11-18 06:00:00 5.3 8 Nordeste 17 Nordeste 0 -- -- 79
2020-11-18 05:00:00 5.6 5 Nordeste 18 Nordeste 0 -- -- 79
2020-11-18 04:00:00 5.4 6 Nordeste 14 Nordeste 0 -- -- 78
2020-11-18 03:00:00 6 7 Nordeste 19 Nordeste 0 -- -- 79
2020-11-18 02:00:00 5.1 8 Nordeste 18 Nordeste 0 -- -- 78
2020-11-18 01:00:00 6.2 6 Nordeste 22 Nordeste 0 -- -- 73
2020-11-18 00:00:00 5.8 6 Nordeste 19 Nordeste 0 -- -- 73
2020-11-17 23:00:00 6.5 2 Este 17 Nordeste 0 -- -- 70
2020-11-17 22:00:00 7.6 11 Nordeste 22 Nordeste 0 -- -- 67
2020-11-17 21:00:00 7.6 9 Nordeste 21 Este 0 -- -- 65
2020-11-17 20:00:00 8.2 12 Nordeste 21 Nordeste 0 -- -- 61
2020-11-17 19:00:00 9.3 6 Nordeste 18 Nordeste 0 -- -- 55
2020-11-17 18:00:00 10.6 8 Nordeste 14 Nordeste 0 -- -- 46
2020-11-17 17:00:00 14.5 0 Calma 8 Noroeste 0 -- -- 34
2020-11-17 16:00:00 16.7 3 Oeste 10 Noroeste 0 -- -- 28
2020-11-17 15:00:00 15.9 3 Noroeste 9 Sudoeste 0 -- -- 33
2020-11-17 14:00:00 16.1 3 Oeste 13 Oeste 0 -- -- 36
2020-11-17 13:00:00 13.7 3 Noroeste 9 Oeste 0 -- -- 38
2020-11-17 12:00:00 13.4 2 Sur 7 Sudeste 0 -- -- 42
2020-11-17 11:00:00 8.3 0 Calma 7 Sudeste 0 -- -- 61
2020-11-17 10:00:00 5 0 Calma 9 Sur 0 -- -- 79
2020-11-17 09:00:00 2.5 0 Calma 8 Sudeste 0 -- -- 85
2020-11-17 08:00:00 2.4 4 Sudeste 20 Nordeste 0 -- -- 87
2020-11-17 07:00:00 2 3 Nordeste 14 Nordeste 0 -- -- 87
2020-11-17 06:00:00 2.3 3 Sudeste 15 Nordeste 0 -- -- 87
2020-11-17 05:00:00 2.1 8 Nordeste 19 Nordeste 0 -- -- 86
2020-11-17 04:00:00 2.4 5 Nordeste 13 Nordeste 0 -- -- 86
2020-11-17 03:00:00 3.1 4 Nordeste 18 Nordeste 0 -- -- 87
2020-11-17 02:00:00 3 6 Nordeste 24 Nordeste 0 -- -- 87
2020-11-17 01:00:00 3.1 7 Nordeste 16 Nordeste 0 -- -- 86
2020-11-17 00:00:00 3.5 5 Nordeste 20 Nordeste 0 -- -- 85
2020-11-16 23:00:00 3.6 8 Nordeste 20 Nordeste 0 -- -- 83
2020-11-16 22:00:00 4.1 9 Nordeste 19 Nordeste 0 -- -- 82
2020-11-16 21:00:00 4.8 0 Calma 9 Nordeste 0 -- -- 77
2020-11-16 20:00:00 5.4 4 Nordeste 10 Nordeste 0 -- -- 73
2020-11-16 19:00:00 7 0 Calma 12 Noroeste 0 -- -- 61
2020-11-16 18:00:00 8.3 6 Noroeste 14 Noroeste 0 -- -- 54
2020-11-16 17:00:00 9.8 9 Noroeste 22 Noroeste 0 -- -- 49
2020-11-16 16:00:00 11.2 9 Noroeste 27 Noroeste 0.1 -- -- 46
2020-11-16 15:00:00 11.9 9 Noroeste 30 Noroeste 0 -- -- 46
2020-11-16 14:00:00 12.8 5 Noroeste 23 Noroeste 0 -- -- 46
2020-11-16 13:00:00 12.3 4 Oeste 20 Sudoeste 0 -- -- 47
2020-11-16 12:00:00 12.5 7 Oeste 19 Sudoeste 0 -- -- 55
2020-11-16 11:00:00 10.2 6 Oeste 18 Oeste 0 -- -- 73
2020-11-16 10:00:00 8 5 Noroeste 19 Noroeste 0 -- -- 86
2020-11-16 09:00:00 6.9 2 Sudoeste 12 Oeste 0 -- -- 88
2020-11-16 08:00:00 6.7 5 Oeste 15 Noroeste 0 -- -- 88
2020-11-16 07:00:00 7.2 5 Oeste 16 Noroeste 0 -- -- 88
2020-11-16 06:00:00 7.8 6 Oeste 16 Sudoeste 0 -- -- 88
2020-11-16 05:00:00 8.4 6 Oeste 19 Noroeste 0 -- -- 89
2020-11-16 04:00:00 9.3 8 Noroeste 17 Noroeste 0 -- -- 89
2020-11-16 03:00:00 9.8 8 Noroeste 19 Noroeste 0 -- -- 88
2020-11-16 02:00:00 10.5 5 Noroeste 15 Noroeste 0 -- -- 88
2020-11-16 01:00:00 10.6 0 Calma 8 Noroeste 0.1 -- -- 88
2020-11-16 00:00:00 10.7 3 Noroeste 9 Nordeste 0.2 -- -- 87
2020-11-15 23:00:00 10.9 0 Calma 12 Nordeste 0.2 -- -- 87
2020-11-15 22:00:00 10.9 0 Calma 17 Nordeste 0.1 -- -- 85
2020-11-15 21:00:00 10.8 6 Nordeste 13 Nordeste 0.1 -- -- 85
2020-11-15 20:00:00 11.2 3 Este 14 Nordeste 0 -- -- 79
2020-11-15 19:00:00 11.2 6 Nordeste 16 Nordeste 0 -- -- 79
2020-11-15 18:00:00 12 3 Este 15 Nordeste 0 -- -- 70
2020-11-15 17:00:00 12.3 3 Nordeste 9 Este 0 -- -- 67
2020-11-15 16:00:00 12.3 6 Nordeste 13 Nordeste 0 -- -- 67
2020-11-15 15:00:00 12.6 0 Calma 9 Sudeste 0 -- -- 63
2020-11-15 14:00:00 12.7 5 Sudeste 13 Norte 0 -- -- 61
2020-11-15 13:00:00 13 3 Sudeste 10 Sur 0 -- -- 61
2020-11-15 12:00:00 12.1 4 Sur 14 Sudeste 0 -- -- 61
2020-11-15 11:00:00 12.1 5 Sudeste 13 Sudeste 0 -- -- 59
2020-11-15 10:00:00 9.6 3 Este 12 Nordeste 0 -- -- 73
2020-11-15 09:00:00 7.3 4 Nordeste 17 Nordeste 0 -- -- 78
2020-11-15 08:00:00 7.2 5 Nordeste 17 Este 0 -- -- 79
2020-11-15 07:00:00 6.8 6 Nordeste 15 Este 0 -- -- 81
2020-11-15 06:00:00 6.5 3 Nordeste 13 Nordeste 0 -- -- 79
2020-11-15 05:00:00 7 9 Nordeste 21 Nordeste 0 -- -- 79
2020-11-15 04:00:00 6.4 8 Nordeste 18 Nordeste 0 -- -- 79
2020-11-15 03:00:00 7.4 5 Nordeste 16 Nordeste 0 -- -- 78
2020-11-15 02:00:00 7.4 9 Nordeste 19 Nordeste 0 -- -- 77
2020-11-15 01:00:00 8.3 9 Nordeste 19 Nordeste 0 -- -- 75
2020-11-15 00:00:00 8.9 4 Nordeste 9 Este 0 -- -- 72
2020-11-14 23:00:00 10.2 3 Sudeste 9 Nordeste 0 -- -- 68
2020-11-14 22:00:00 10.3 0 Calma 7 Norte 0 -- -- 66
2020-11-14 21:00:00 10.7 2 Norte 6 Este 0 -- -- 63
2020-11-14 20:00:00 11.4 2 Nordeste 12 Este 0 -- -- 59
2020-11-14 19:00:00 11.7 0 Calma 5 Sur 0 -- -- 55
2020-11-14 18:00:00 12.5 0 Calma 9 Sudeste 0 -- -- 52
2020-11-14 17:00:00 13.6 5 Sudeste 11 Sudeste 0 -- -- 47
2020-11-14 16:00:00 14.2 0 Calma 10 Oeste 0 -- -- 47
2020-11-14 15:00:00 15.4 3 Oeste 14 Sudoeste 0 -- -- 46
2020-11-14 14:00:00 15 3 Sudeste 20 Sur 0 -- -- 43
2020-11-14 13:00:00 15.1 8 Sur 22 Sur 0 -- -- 42
2020-11-14 12:00:00 14.3 8 Sudeste 18 Sudeste 0 -- -- 40
2020-11-14 11:00:00 11.2 6 Sudeste 15 Sudeste 0 -- -- 51
2020-11-14 10:00:00 6.3 5 Nordeste 19 Nordeste 0 -- -- 59
2020-11-14 09:00:00 4.2 9 Nordeste 24 Nordeste 0 -- -- 67
2020-11-14 08:00:00 3.6 13 Nordeste 23 Nordeste 0 -- -- 69
2020-11-14 07:00:00 2.7 6 Nordeste 22 Nordeste 0 -- -- 72
2020-11-14 06:00:00 3.3 8 Nordeste 27 Nordeste 0 -- -- 72
2020-11-14 05:00:00 3.5 10 Nordeste 24 Nordeste 0 -- -- 73
2020-11-14 04:00:00 3.4 9 Nordeste 21 Nordeste 0 -- -- 73
2020-11-14 03:00:00 3.6 9 Nordeste 27 Nordeste 0 -- -- 74
2020-11-14 02:00:00 4.2 13 Nordeste 26 Norte 0 -- -- 73
2020-11-14 01:00:00 5 14 Nordeste 26 Nordeste 0 -- -- 73
2020-11-14 00:00:00 5.1 13 Nordeste 27 Nordeste 0 -- -- 76
2020-11-13 23:00:00 5.9 7 Nordeste 23 Nordeste 0 -- -- 73
2020-11-13 22:00:00 6 9 Nordeste 24 Nordeste 0 -- -- 73
2020-11-13 21:00:00 6.7 5 Nordeste 19 Nordeste 0 -- -- 70
2020-11-13 20:00:00 7.4 9 Nordeste 16 Nordeste 0 -- -- 68
2020-11-13 19:00:00 8.6 7 Nordeste 21 Nordeste 0 -- -- 63
2020-11-13 18:00:00 11 0 Calma 10 Noroeste 0 -- -- 51
2020-11-13 17:00:00 13.8 4 Oeste 12 Noroeste 0 -- -- 39
2020-11-13 16:00:00 15.6 5 Noroeste 12 Noroeste 0 -- -- 37
2020-11-13 15:00:00 16.9 4 Oeste 9 Oeste 0 -- -- 36
2020-11-13 14:00:00 16.3 3 Oeste 11 Sudoeste 0 -- -- 38
2020-11-13 13:00:00 14.6 2 Noroeste 8 Oeste 0 -- -- 40
2020-11-13 12:00:00 13.9 2 Sudoeste 6 Sudoeste 0 -- -- 46
2020-11-13 11:00:00 11.1 0 Calma 7 Sudeste 0 -- -- 55
2020-11-13 10:00:00 7.8 3 Este 17 Nordeste 0 -- -- 65
2020-11-13 09:00:00 7.3 6 Sudeste 24 Nordeste 0 -- -- 63
2020-11-13 08:00:00 5.9 4 Nordeste 14 Nordeste 0 -- -- 70
2020-11-13 07:00:00 7.5 7 Nordeste 18 Nordeste 0 -- -- 63
2020-11-13 06:00:00 7.1 11 Nordeste 21 Nordeste 0 -- -- 63
2020-11-13 05:00:00 6.7 10 Nordeste 23 Nordeste 0 -- -- 65
2020-11-13 04:00:00 6.5 7 Nordeste 27 Nordeste 0 -- -- 65
2020-11-13 03:00:00 6.3 6 Nordeste 22 Nordeste 0 -- -- 67
2020-11-13 02:00:00 5.6 7 Nordeste 20 Nordeste 0 -- -- 68
2020-11-13 01:00:00 5.8 8 Nordeste 19 Nordeste 0 -- -- 70
2020-11-13 00:00:00 5.5 8 Nordeste 20 Nordeste 0 -- -- 71
2020-11-12 23:00:00 5.8 5 Nordeste 33 Nordeste 0 -- -- 68
2020-11-12 22:00:00 6.2 9 Nordeste 18 Nordeste 0 -- -- 68
2020-11-12 21:00:00 7 5 Nordeste 18 Nordeste 0 -- -- 68
2020-11-12 20:00:00 8.4 6 Nordeste 17 Nordeste 0 -- -- 68
2020-11-12 19:00:00 9.1 6 Nordeste 12 Nordeste 0 -- -- 65
2020-11-12 18:00:00 11.3 3 Nordeste 9 Sudoeste 0 -- -- 52
2020-11-12 17:00:00 15 5 Sudoeste 10 Oeste 0 -- -- 37
2020-11-12 16:00:00 17.2 2 Sudeste 8 Sur 0 -- -- 34
2020-11-12 15:00:00 16.1 2 Nordeste 7 Sudoeste 0 -- -- 33
2020-11-12 14:00:00 16.7 0 Calma 10 Sudeste 0 -- -- 36
2020-11-12 13:00:00 15.8 3 Sur 9 Sur 0 -- -- 40
2020-11-12 12:00:00 13.8 0 Calma 6 Sur 0 -- -- 47
2020-11-12 11:00:00 10.6 2 Sudeste 7 Sudeste 0 -- -- 58
2020-11-12 10:00:00 6.9 2 Sudeste 10 Nordeste 0 -- -- 78
2020-11-12 09:00:00 4.3 5 Nordeste 14 Nordeste 0 -- -- 83
2020-11-12 08:00:00 4.3 8 Nordeste 17 Nordeste 0 -- -- 83
2020-11-12 07:00:00 4.8 6 Nordeste 16 Nordeste 0 -- -- 82
2020-11-12 06:00:00 5 4 Nordeste 12 Nordeste 0 -- -- 79
2020-11-12 05:00:00 5.3 4 Nordeste 14 Nordeste 0 -- -- 77
2020-11-12 04:00:00 5.7 6 Nordeste 17 Nordeste 0 -- -- 76
2020-11-12 03:00:00 6.3 9 Nordeste 18 Nordeste 0 -- -- 72
2020-11-12 02:00:00 6.2 4 Nordeste 17 Nordeste 0 -- -- 72
2020-11-12 01:00:00 6.3 4 Nordeste 22 Nordeste 0 -- -- 70
2020-11-12 00:00:00 6.8 6 Nordeste 18 Nordeste 0 -- -- 68
2020-11-11 23:00:00 6.8 3 Este 15 Nordeste 0 -- -- 68
2020-11-11 22:00:00 6.7 4 Nordeste 21 Nordeste 0 -- -- 70
2020-11-11 21:00:00 6.4 7 Nordeste 24 Nordeste 0 -- -- 70
2020-11-11 20:00:00 7.6 8 Nordeste 19 Nordeste 0 -- -- 68
2020-11-11 19:00:00 8.3 8 Nordeste 15 Nordeste 0 -- -- 67
2020-11-11 18:00:00 10.6 0 Calma 6 Norte 0 -- -- 55
2020-11-11 17:00:00 13.9 3 Oeste 7 Noroeste 0 -- -- 38
2020-11-11 16:00:00 15.5 4 Sudoeste 11 Norte 0 -- -- 35
2020-11-11 15:00:00 16.4 6 Sudoeste 17 Sudoeste 0 -- -- 34
2020-11-11 14:00:00 16.6 2 Sur 12 Este 0 -- -- 33
2020-11-11 13:00:00 15.6 4 Sudeste 15 Sudeste 0 -- -- 35
2020-11-11 12:00:00 14.1 5 Sudeste 13 Sur 0 -- -- 46
2020-11-11 11:00:00 10.2 5 Sudeste 14 Sudeste 0 -- -- 58
2020-11-11 10:00:00 7.5 5 Sudeste 11 Sudeste 0 -- -- 78
2020-11-11 09:00:00 3.8 3 Nordeste 19 Nordeste 0 -- -- 85
2020-11-11 08:00:00 3.8 6 Nordeste 14 Nordeste 0 -- -- 85
2020-11-11 07:00:00 3.8 4 Nordeste 15 Nordeste 0 -- -- 85
2020-11-11 06:00:00 3.7 4 Nordeste 17 Norte 0 -- -- 85
2020-11-11 05:00:00 4 7 Nordeste 16 Nordeste 0 -- -- 85
2020-11-11 04:00:00 4.1 9 Nordeste 18 Nordeste 0 -- -- 85
2020-11-11 03:00:00 4.6 6 Nordeste 19 Nordeste 0 -- -- 85
2020-11-11 02:00:00 4.8 4 Nordeste 15 Nordeste 0 -- -- 85
2020-11-11 01:00:00 5.3 5 Nordeste 15 Nordeste 0 -- -- 85
2020-11-11 00:00:00 5.2 7 Nordeste 18 Norte 0 -- -- 83
2020-11-10 23:00:00 5.8 10 Nordeste 20 Nordeste 0 -- -- 83
2020-11-10 22:00:00 6.1 8 Nordeste 17 Nordeste 0 -- -- 82
2020-11-10 21:00:00 6.5 6 Nordeste 18 Nordeste 0 -- -- 79
2020-11-10 20:00:00 7.4 10 Nordeste 20 Nordeste 0 -- -- 77
2020-11-10 19:00:00 8.6 10 Nordeste 24 Nordeste 0 -- -- 74
2020-11-10 18:00:00 11 0 Calma 15 Noroeste 0 -- -- 62
2020-11-10 17:00:00 12.5 6 Noroeste 17 Noroeste 0 -- -- 54
2020-11-10 16:00:00 13.7 7 Noroeste 20 Noroeste 0 -- -- 49
2020-11-10 15:00:00 14 9 Noroeste 19 Oeste 0 -- -- 49
2020-11-10 14:00:00 13.2 8 Noroeste 18 Norte 0 -- -- 51
2020-11-10 13:00:00 12.6 3 Noroeste 9 Noroeste 0 -- -- 57
2020-11-10 12:00:00 10.8 3 Noroeste 9 Noroeste 0 -- -- 64
2020-11-10 11:00:00 10 4 Sur 9 Sur 0 -- -- 68
2020-11-10 10:00:00 5.1 0 Calma 7 Sudeste 0 -- -- 88
2020-11-10 09:00:00 2.8 0 Calma 5 Norte 0 -- -- 88
2020-11-10 08:00:00 2.3 0 Calma 6 Nordeste 0 -- -- 88
2020-11-10 07:00:00 2.3 0 Calma 4 Norte 0 -- -- 88
2020-11-10 06:00:00 3.1 0 Calma 10 Norte 0 -- -- 88
2020-11-10 05:00:00 3.9 5 Nordeste 12 Nordeste 0 -- -- 88
2020-11-10 04:00:00 4.2 8 Nordeste 15 Nordeste 0 -- -- 88
2020-11-10 03:00:00 4.3 5 Nordeste 15 Nordeste 0 -- -- 88
2020-11-10 02:00:00 4.3 6 Nordeste 13 Nordeste 0 -- -- 88
2020-11-10 01:00:00 4.5 9 Nordeste 19 Nordeste 0 -- -- 87
2020-11-10 00:00:00 5 6 Nordeste 14 Nordeste 0 -- -- 87
2020-11-09 23:00:00 5.7 2 Este 14 Nordeste 0 -- -- 87
2020-11-09 22:00:00 5.8 7 Nordeste 16 Nordeste 0 -- -- 86
2020-11-09 21:00:00 6.7 4 Nordeste 16 Nordeste 0 -- -- 85
2020-11-09 20:00:00 7.7 5 Nordeste 10 Nordeste 0 -- -- 81
2020-11-09 19:00:00 9.3 3 Nordeste 10 Nordeste 0 -- -- 77
2020-11-09 18:00:00 10.8 3 Noroeste 13 Noroeste 0 -- -- 70
2020-11-09 17:00:00 11.8 6 Noroeste 15 Noroeste 0 -- -- 66
2020-11-09 16:00:00 12.9 4 Sudoeste 20 Noroeste 0 -- -- 58
2020-11-09 15:00:00 13.5 8 Noroeste 21 Noroeste 0 -- -- 51
2020-11-09 14:00:00 15.1 4 Oeste 10 Noroeste 0 -- -- 43
2020-11-09 13:00:00 15.2 3 Sudoeste 10 Sudeste 0 -- -- 44
2020-11-09 12:00:00 13.6 4 Sudeste 14 Sudeste 0 -- -- 47
2020-11-09 11:00:00 11.4 6 Sudeste 17 Sudeste 0 -- -- 57
2020-11-09 10:00:00 8.9 5 Sudeste 13 Sudeste 0 -- -- 70
2020-11-09 09:00:00 5.5 3 Nordeste 12 Nordeste 0 -- -- 82
2020-11-09 08:00:00 5.8 6 Nordeste 18 Nordeste 0 -- -- 83
2020-11-09 07:00:00 4.8 6 Nordeste 19 Nordeste 0 -- -- 83
2020-11-09 06:00:00 5.4 6 Nordeste 21 Nordeste 0 -- -- 83
2020-11-09 05:00:00 5.2 6 Nordeste 19 Nordeste 0 -- -- 83
2020-11-09 04:00:00 5 4 Nordeste 19 Nordeste 0 -- -- 82
2020-11-09 03:00:00 5.3 5 Este 19 Nordeste 0 -- -- 82
2020-11-09 02:00:00 5.3 7 Nordeste 23 Nordeste 0 -- -- 83
2020-11-09 01:00:00 5.8 4 Este 19 Nordeste 0 -- -- 82
2020-11-09 00:00:00 5.8 5 Nordeste 22 Nordeste 0 -- -- 82
2020-11-08 23:00:00 6.6 10 Nordeste 22 Nordeste 0 -- -- 82
2020-11-08 22:00:00 6.6 8 Nordeste 21 Nordeste 0 -- -- 81
2020-11-08 21:00:00 7.4 7 Nordeste 20 Nordeste 0 -- -- 79
2020-11-08 20:00:00 8.3 6 Nordeste 21 Nordeste 0 -- -- 74
2020-11-08 19:00:00 8.7 7 Nordeste 14 Este 0 -- -- 70
2020-11-08 18:00:00 11.4 0 Calma 8 Sur 0 -- -- 52
2020-11-08 17:00:00 12.7 3 Sudeste 13 Este 0 -- -- 48
2020-11-08 16:00:00 13.5 6 Sudeste 17 Sudeste 0 -- -- 43
2020-11-08 15:00:00 14 5 Sudeste 15 Sur 0.1 -- -- 42
2020-11-08 14:00:00 14.5 9 Sudoeste 20 Sudeste 0 -- -- 44
2020-11-08 13:00:00 14.5 8 Sur 19 Sur 0 -- -- 42
2020-11-08 12:00:00 13.7 8 Sudeste 17 Sudeste 0 -- -- 55
2020-11-08 11:00:00 12 7 Este 17 Este 0 -- -- 74
2020-11-08 10:00:00 9.3 4 Este 16 Este 0 -- -- 88
2020-11-08 09:00:00 7 5 Este 18 Nordeste 0 -- -- 88
2020-11-08 08:00:00 6.6 7 Nordeste 24 Nordeste 0 -- -- 88
2020-11-08 07:00:00 7 10 Nordeste 19 Nordeste 0 -- -- 87
2020-11-08 06:00:00 8 4 Nordeste 11 Nordeste 0 -- -- 87
2020-11-08 05:00:00 8.7 4 Nordeste 12 Nordeste 0 -- -- 87
2020-11-08 04:00:00 9.1 6 Nordeste 14 Nordeste 0 -- -- 87
2020-11-08 03:00:00 9.2 0 Calma 12 Sudeste 0 -- -- 87
2020-11-08 02:00:00 9.4 4 Sudeste 10 Sudeste 0 -- -- 87
2020-11-08 01:00:00 9.4 3 Sudeste 9 Este 0 -- -- 87
2020-11-08 00:00:00 9.5 2 Nordeste 8 Nordeste 0 -- -- 87
2020-11-07 23:00:00 9.6 0 Calma 7 Nordeste 0.1 -- -- 87
2020-11-07 22:00:00 9.7 0 Calma 4 Nordeste 0.1 -- -- 87
2020-11-07 21:00:00 9.7 3 Nordeste 9 Este 1.1 -- -- 87
2020-11-07 20:00:00 9.9 2 Nordeste 9 Sudeste 5.6 -- -- 85
2020-11-07 19:00:00 10.2 0 Calma 9 Sudeste 2.8 -- -- 85
2020-11-07 18:00:00 10.6 3 Noroeste 15 Este 1.3 -- -- 81
2020-11-07 17:00:00 11.2 6 Sudeste 16 Sudeste 0.5 -- -- 79
2020-11-07 16:00:00 11.1 5 Sudeste 18 Sudeste 0 -- -- 85
2020-11-07 15:00:00 10.7 7 Sudeste 22 Sudeste 0 -- -- 88
2020-11-07 14:00:00 10.4 6 Sudeste 15 Sudeste 0.6 -- -- 88
2020-11-07 13:00:00 10.1 4 Nordeste 17 Nordeste 0.9 -- -- 88
2020-11-07 12:00:00 10 5 Nordeste 21 Nordeste 2 -- -- 88
2020-11-07 11:00:00 9.7 8 Nordeste 14 Nordeste 11.5 -- -- 87
2020-11-07 10:00:00 11.6 4 Sur 33 Sudeste 8.8 -- -- 83
2020-11-07 09:00:00 12.2 13 Sudeste 35 Sudeste 1.4 -- -- 72
2020-11-07 08:00:00 13.4 15 Sudeste 45 Sudeste 0.3 -- -- 57
2020-11-07 07:00:00 15.2 15 Sudeste 42 Sudeste 0 -- -- 47
2020-11-07 06:00:00 15.5 15 Sudeste 40 Este 0 -- -- 44
2020-11-07 05:00:00 15.9 10 Sudeste 41 Este 0 -- -- 43
2020-11-07 04:00:00 15.3 13 Sudeste 35 Sudeste 0 -- -- 46
2020-11-07 03:00:00 15.2 17 Sudeste 38 Este 0 -- -- 48
2020-11-07 02:00:00 14 7 Sudeste 21 Sudeste 0 -- -- 53
2020-11-07 01:00:00 13.6 3 Sudeste 21 Sur 0 -- -- 55
2020-11-07 00:00:00 13.9 10 Sudeste 28 Sudeste 0 -- -- 54
2020-11-06 23:00:00 13.7 9 Sudeste 34 Sudeste 0 -- -- 55
2020-11-06 22:00:00 14.2 11 Sudeste 33 Sudeste 0 -- -- 54
2020-11-06 21:00:00 13.9 10 Sudeste 23 Sudeste 0 -- -- 55
2020-11-06 20:00:00 14.1 9 Sudeste 30 Sudeste 0 -- -- 53
2020-11-06 19:00:00 14.2 11 Sudeste 31 Sudeste 0 -- -- 53
2020-11-06 18:00:00 14.3 11 Sudeste 32 Sudeste 0 -- -- 53
2020-11-06 17:00:00 14.4 13 Sudeste 39 Sudeste 0 -- -- 53
2020-11-06 16:00:00 14.9 7 Sudeste 30 Sudeste 0 -- -- 51
2020-11-06 15:00:00 15.7 10 Sudeste 31 Sudeste 0 -- -- 49
2020-11-06 14:00:00 15.3 12 Sudeste 36 Sudeste 0 -- -- 49
2020-11-06 13:00:00 15.7 11 Sudeste 33 Sudeste 0 -- -- 49
2020-11-06 12:00:00 15.3 11 Sudeste 34 Sudeste 0 -- -- 55
2020-11-06 11:00:00 14.7 14 Sudeste 31 Sudeste 0 -- -- 57
2020-11-06 10:00:00 13.8 11 Sudeste 28 Este 0 -- -- 59
2020-11-06 09:00:00 12.3 8 Sudeste 21 Sudeste 0 -- -- 65
2020-11-06 08:00:00 12.1 9 Sudeste 28 Sudeste 0 -- -- 64
2020-11-06 07:00:00 12.1 11 Sudeste 25 Sudeste 0 -- -- 64
2020-11-06 06:00:00 11.7 5 Sudeste 21 Este 0 -- -- 65
2020-11-06 05:00:00 11.4 5 Este 23 Sudeste 0 -- -- 65
2020-11-06 04:00:00 11.5 11 Sudeste 27 Sudeste 0 -- -- 65
2020-11-06 03:00:00 11 10 Sudeste 24 Sudeste 0 -- -- 67
2020-11-06 02:00:00 11.5 9 Sudeste 34 Sudeste 0.1 -- -- 63
2020-11-06 01:00:00 11 12 Sudeste 24 Sudeste 0.3 -- -- 68
2020-11-06 00:00:00 11.7 9 Sudeste 21 Sur 0 -- -- 62
2020-11-05 23:00:00 11.6 7 Este 32 Sudeste 0 -- -- 62
2020-11-05 22:00:00 11.8 10 Sudeste 25 Sudeste 0 -- -- 62
2020-11-05 21:00:00 11.3 6 Sudeste 17 Sudeste 0 -- -- 61
2020-11-05 20:00:00 11.9 4 Este 18 Sudeste 0 -- -- 56
2020-11-05 19:00:00 12.6 6 Sudeste 18 Sudeste 0 -- -- 52
2020-11-05 18:00:00 13.2 3 Este 8 Sudeste 0 -- -- 47
2020-11-05 17:00:00 14.5 2 Este 15 Sudeste 0 -- -- 42
2020-11-05 16:00:00 15.5 6 Sudeste 23 Sur 0 -- -- 37
2020-11-05 15:00:00 17.1 10 Sur 26 Sur 0 -- -- 34
2020-11-05 14:00:00 16.3 10 Sur 25 Sur 0 -- -- 38
2020-11-05 13:00:00 15.1 6 Oeste 13 Sudoeste 0 -- -- 55
2020-11-05 12:00:00 12.4 0 Calma 9 Oeste 0 -- -- 59
2020-11-05 11:00:00 8.8 0 Calma 9 Nordeste 0 -- -- 77
2020-11-05 10:00:00 7.2 2 Noroeste 13 Nordeste 0 -- -- 81
2020-11-05 09:00:00 5 6 Nordeste 22 Este 0 -- -- 87
2020-11-05 08:00:00 4.2 4 Nordeste 22 Nordeste 0 -- -- 87
2020-11-05 07:00:00 4.6 8 Nordeste 20 Este 0 -- -- 87
2020-11-05 06:00:00 4.8 7 Nordeste 18 Nordeste 0 -- -- 87
2020-11-05 05:00:00 4.5 2 Sudeste 13 Nordeste 0 -- -- 87
2020-11-05 04:00:00 5.1 8 Norte 16 Nordeste 0 -- -- 85
2020-11-05 03:00:00 5.4 5 Norte 9 Nordeste 0 -- -- 85
2020-11-05 02:00:00 5.5 4 Norte 10 Nordeste 0 -- -- 85
2020-11-05 01:00:00 4.9 6 Nordeste 13 Nordeste 0 -- -- 85
2020-11-05 00:00:00 5.1 0 Calma 12 Nordeste 0 -- -- 85
2020-11-04 23:00:00 5 3 Nordeste 8 Nordeste 0 -- -- 86
2020-11-04 22:00:00 5.3 2 Nordeste 7 Nordeste 0 -- -- 86
2020-11-04 21:00:00 5.8 2 Noroeste 9 Noroeste 0 -- -- 86
2020-11-04 20:00:00 5.9 4 Noroeste 10 Noroeste 0 -- -- 85
2020-11-04 19:00:00 6.2 5 Oeste 10 Oeste 0 -- -- 85
2020-11-04 18:00:00 6.5 3 Oeste 10 Oeste 0 -- -- 85
2020-11-04 17:00:00 7.1 4 Oeste 14 Noroeste 0 -- -- 85
2020-11-04 16:00:00 7.8 3 Oeste 9 Noroeste 0 -- -- 85
2020-11-04 15:00:00 7.5 4 Noroeste 8 Noroeste 0 -- -- 85
2020-11-04 14:00:00 7 0 Calma 6 Noroeste 0 -- -- 86
2020-11-04 13:00:00 6.2 2 Noroeste 6 Noroeste 0 -- -- 86
2020-11-04 12:00:00 6.1 2 Noroeste 5 Oeste 0 -- -- 86
2020-11-04 11:00:00 5.9 0 Calma 5 Sur 0 -- -- 85
2020-11-04 10:00:00 5.4 0 Calma 10 Sudeste 0.1 -- -- 85
2020-11-04 09:00:00 4.5 5 Sudeste 10 Sudeste 0.4 -- -- 85
2020-11-04 08:00:00 4.5 2 Nordeste 6 Sudeste 1.3 -- -- 81
2020-11-04 07:00:00 4.6 2 Sudeste 6 Sur 0.5 -- -- 74
2020-11-04 06:00:00 4.9 0 Calma 9 Noroeste 0 -- -- 66
2020-11-04 05:00:00 4.9 5 Oeste 13 Noroeste 0 -- -- 68
2020-11-04 04:00:00 4.9 5 Noroeste 12 Noroeste 0 -- -- 70
2020-11-04 03:00:00 4.9 5 Oeste 14 Noroeste 0 -- -- 70
2020-11-04 02:00:00 5.3 6 Oeste 16 Noroeste 0 -- -- 68
2020-11-04 01:00:00 5.8 5 Oeste 17 Noroeste 0 -- -- 70
2020-11-04 00:00:00 6.3 9 Noroeste 17 Noroeste 0 -- -- 70
2020-11-03 23:00:00 6.5 5 Oeste 20 Oeste 0 -- -- 70
2020-11-03 22:00:00 7 9 Noroeste 18 Noroeste 0 -- -- 70
2020-11-03 21:00:00 7.2 4 Oeste 18 Noroeste 0 -- -- 68
2020-11-03 20:00:00 7.5 7 Noroeste 16 Oeste 0 -- -- 67
2020-11-03 19:00:00 7.9 6 Oeste 30 Noroeste 0 -- -- 63
2020-11-03 18:00:00 8.8 7 Norte 33 Nordeste 0 -- -- 61
2020-11-03 17:00:00 8.9 9 Oeste 24 Oeste 0 -- -- 78
2020-11-03 16:00:00 9.2 5 Oeste 17 Oeste 0 -- -- 83
2020-11-03 15:00:00 9.5 3 Oeste 19 Noroeste 0.1 -- -- 88
2020-11-03 14:00:00 9.1 8 Noroeste 18 Oeste 0 -- -- 89
2020-11-03 13:00:00 8.8 4 Sudoeste 19 Noroeste 0 -- -- 89
2020-11-03 12:00:00 8.4 9 Noroeste 19 Noroeste 0.7 -- -- 89
2020-11-03 11:00:00 8.6 6 Oeste 17 Oeste 1.2 -- -- 89
2020-11-03 10:00:00 8.9 6 Noroeste 20 Noroeste 1.5 -- -- 89
2020-11-03 09:00:00 9.4 6 Sudoeste 18 Noroeste 1 -- -- 89
2020-11-03 08:00:00 9.4 7 Noroeste 18 Noroeste 1 -- -- 87
2020-11-03 07:00:00 9.6 5 Oeste 13 Noroeste 0 -- -- 85
2020-11-03 06:00:00 9.6 3 Noroeste 9 Noroeste 0 -- -- 85
2020-11-03 05:00:00 10.1 6 Oeste 12 Oeste 0 -- -- 85
2020-11-03 04:00:00 10.3 3 Oeste 10 Oeste 0 -- -- 85
2020-11-03 03:00:00 10.1 0 Calma 7 Norte 0 -- -- 85
2020-11-03 02:00:00 10.2 0 Calma 8 Nordeste 0 -- -- 83
2020-11-03 01:00:00 10.8 0 Calma -- -- 0 -- -- 81
2020-11-03 00:00:00 10.9 0 Calma 5 Nordeste 0 -- -- 81
2020-11-02 23:00:00 11 3 Nordeste 7 Nordeste 0 -- -- 81
2020-11-02 22:00:00 11.1 0 Calma 5 Norte 0 -- -- 79
2020-11-02 21:00:00 11.9 5 Nordeste 14 Nordeste 0 -- -- 77
2020-11-02 20:00:00 12.9 3 Nordeste 13 Nordeste 0 -- -- 72
2020-11-02 19:00:00 13.9 4 Norte 10 Oeste 0 -- -- 65
2020-11-02 18:00:00 16.4 6 Noroeste 21 Noroeste 0 -- -- 52
2020-11-02 17:00:00 18.3 7 Noroeste 16 Noroeste 0 -- -- 46
2020-11-02 16:00:00 20.2 6 Noroeste 14 Noroeste 0 -- -- 38
2020-11-02 15:00:00 20.9 6 Noroeste 17 Oeste 0 -- -- 37
2020-11-02 14:00:00 20.8 6 Noroeste 18 Sudoeste 0 -- -- 37
2020-11-02 13:00:00 21.6 5 Oeste 15 Oeste 0 -- -- 37
2020-11-02 12:00:00 20.3 4 Sudeste 12 Sur 0 -- -- 42
2020-11-02 11:00:00 16.7 5 Sudeste 11 Sur 0 -- -- 55
2020-11-02 10:00:00 15 5 Sudeste 13 Este 0 -- -- 61
2020-11-02 09:00:00 11 3 Este 10 Sudeste 0 -- -- 78
2020-11-02 08:00:00 9.6 2 Este 16 Nordeste 0 -- -- 79
2020-11-02 07:00:00 9.7 6 Nordeste 15 Nordeste 0 -- -- 79
2020-11-02 06:00:00 9.8 5 Nordeste 20 Nordeste 0 -- -- 77
2020-11-02 05:00:00 9.8 4 Nordeste 21 Nordeste 0 -- -- 79
2020-11-02 04:00:00 9.7 6 Nordeste 15 Nordeste 0 -- -- 79
2020-11-02 03:00:00 10 6 Nordeste 18 Nordeste 0 -- -- 81
2020-11-02 02:00:00 10.1 5 Nordeste 20 Este 0 -- -- 78
2020-11-02 01:00:00 10.1 5 Nordeste 23 Nordeste 0 -- -- 79
2020-11-02 00:00:00 10.2 9 Nordeste 21 Norte 0 -- -- 78